Time;durP1;ratioP1;P1;durP2;ratioP2;P2;SDS_P1;SDS_P2;PMS_P1;PMS_P2;Temp;Humidity;BMP_temperature;BMP_pressure;BME280_temperature;BME280_humidity;BME280_pressure;Samples;Min_cycle;Max_cycle;Signal;HPM_P1;HPM_P2
2020/03/25 00:00:41;;;;;;;13.9;9.999999;;;;;;;-1.2;48.06543;95967.49;;;;
2020/03/25 00:03:47;;;;;;;13.9;9.999999;;;;;;;-1.2;48.06543;95967.49;;;;
2020/03/25 00:09:44;;;;;;;17.2;10.15;;;;;;;-1.39;48.29688;95960.49;;;;
2020/03/25 00:11:39;;;;;;;17.2;10.15;;;;;;;-1.39;48.29688;95960.49;;;;
2020/03/25 00:21:10;;;;;;;15.2;9.35;;;;;;;-1.55;48.50781;95957.64;;;;
2020/03/25 00:22:35;;;;;;;15.2;9.35;;;;;;;-1.55;48.50781;95957.64;;;;
2020/03/25 00:24:09;;;;;;;15.2;9.35;;;;;;;-1.55;48.50781;95957.64;;;;
2020/03/25 00:25:34;;;;;;;15.2;9.35;;;;;;;-1.55;48.50781;95957.64;;;;
2020/03/25 00:26:51;;;;;;;15.2;9.35;;;;;;;-1.55;48.50781;95957.64;;;;
2020/03/25 00:28:14;;;;;;;15.2;9.35;;;;;;;-1.55;48.50781;95957.64;;;;
2020/03/25 00:33:38;;;;;;;14.15;8.35;;;;;;;-1.69;48.12598;95950.67;;;;
2020/03/25 00:34:46;;;;;;;13.45;9.05;;;;;;;-1.66;48.33789;95950.36;;;;
2020/03/25 00:36:14;;;;;;;13.45;9.05;;;;;;;-1.66;48.33789;95950.36;;;;
2020/03/25 00:37:25;;;;;;;13.45;9.05;;;;;;;-1.66;48.33789;95950.36;;;;
2020/03/25 00:38:51;;;;;;;13.45;9.05;;;;;;;-1.66;48.33789;95950.36;;;;
2020/03/25 00:39:59;;;;;;;13.45;9.05;;;;;;;-1.66;48.33789;95950.36;;;;
2020/03/25 00:41:58;;;;;;;13.45;9.05;;;;;;;-1.66;48.33789;95950.36;;;;
2020/03/25 00:43:29;;;;;;;13.45;9.05;;;;;;;-1.66;48.33789;95950.36;;;;
2020/03/25 00:44:39;;;;;;;13.45;9.05;;;;;;;-1.66;48.33789;95950.36;;;;
2020/03/25 00:45:46;;;;;;;15.25;9.299999;;;;;;;-1.78;48.13574;95937.39;;;;
2020/03/25 00:46:59;;;;;;;15.25;9.299999;;;;;;;-1.78;48.13574;95937.39;;;;
2020/03/25 00:48:36;;;;;;;15.95;9.599999;;;;;;;-1.76;48.50586;95934.93;;;;
2020/03/25 00:49:45;;;;;;;15.95;9.599999;;;;;;;-1.76;48.50586;95934.93;;;;
2020/03/25 00:50:55;;;;;;;15.95;9.599999;;;;;;;-1.76;48.50586;95934.93;;;;
2020/03/25 00:52:01;;;;;;;15.95;9.599999;;;;;;;-1.76;48.50586;95934.93;;;;
2020/03/25 00:53:10;;;;;;;15.95;9.599999;;;;;;;-1.76;48.50586;95934.93;;;;
2020/03/25 00:54:19;;;;;;;15.95;9.599999;;;;;;;-1.76;48.50586;95934.93;;;;
2020/03/25 00:55:24;;;;;;;15.95;9.599999;;;;;;;-1.76;48.50586;95934.93;;;;
2020/03/25 00:56:32;;;;;;;15.95;9.599999;;;;;;;-1.76;48.50586;95934.93;;;;
2020/03/25 00:58:08;;;;;;;15.95;9.599999;;;;;;;-1.76;48.50586;95934.93;;;;
2020/03/25 00:59:18;;;;;;;16.85;9.1;;;;;;;-1.87;48.25098;95928.58;;;;
2020/03/25 01:04:50;;;;;;;15.55;10.15;;;;;;;-1.86;48.81836;95917.85;;;;
2020/03/25 01:06:09;;;;;;;15.55;10.15;;;;;;;-1.86;48.81836;95917.85;;;;
2020/03/25 01:07:37;;;;;;;15.55;10.15;;;;;;;-1.86;48.81836;95917.85;;;;
2020/03/25 01:08:54;;;;;;;15.55;10.15;;;;;;;-1.86;48.81836;95917.85;;;;
2020/03/25 01:10:36;;;;;;;15.55;10.15;;;;;;;-1.86;48.81836;95917.85;;;;
2020/03/25 01:11:59;;;;;;;14.8;8.6;;;;;;;-1.93;48.58984;95910.14;;;;
2020/03/25 01:13:11;;;;;;;14.8;8.6;;;;;;;-1.93;48.58984;95910.14;;;;
2020/03/25 01:18:41;;;;;;;17.15;9.899999;;;;;;;-1.9;48.90723;95907.68;;;;
2020/03/25 01:20:08;;;;;;;17.15;9.899999;;;;;;;-1.9;48.90723;95907.68;;;;
2020/03/25 01:21:19;;;;;;;17.15;9.899999;;;;;;;-1.9;48.90723;95907.68;;;;
2020/03/25 01:22:29;;;;;;;17.15;9.899999;;;;;;;-1.9;48.90723;95907.68;;;;
2020/03/25 01:23:55;;;;;;;17.15;9.899999;;;;;;;-1.9;48.90723;95907.68;;;;
2020/03/25 01:25:12;;;;;;;17.55;8.899999;;;;;;;-1.97;48.9834;95903.47;;;;
2020/03/25 01:26:38;;;;;;;17.55;8.899999;;;;;;;-1.97;48.9834;95903.47;;;;
2020/03/25 01:28:21;;;;;;;15.95;9.400002;;;;;;;-1.93;49.16602;95908.4;;;;
2020/03/25 01:29:34;;;;;;;15.95;9.400002;;;;;;;-1.93;49.16602;95908.4;;;;
2020/03/25 01:31:43;;;;;;;15.95;9.400002;;;;;;;-1.93;49.16602;95908.4;;;;
2020/03/25 01:33:11;;;;;;;15.95;9.400002;;;;;;;-1.93;49.16602;95908.4;;;;
2020/03/25 01:34:19;;;;;;;15.95;9.400002;;;;;;;-1.93;49.16602;95908.4;;;;
2020/03/25 01:35:36;;;;;;;15.95;9.400002;;;;;;;-1.93;49.16602;95908.4;;;;
2020/03/25 01:36:51;;;;;;;15.95;9.400002;;;;;;;-1.93;49.16602;95908.4;;;;
2020/03/25 01:39:14;;;;;;;15.9;8.450001;;;;;;;-1.99;48.88672;95888.65;;;;
2020/03/25 01:44:32;;;;;;;16.1;9.600001;;;;;;;-1.96;49.0166;95889.76;;;;
2020/03/25 01:45:43;;;;;;;16.1;9.600001;;;;;;;-1.96;49.0166;95889.76;;;;
2020/03/25 01:46:59;;;;;;;16.1;9.600001;;;;;;;-1.96;49.0166;95889.76;;;;
2020/03/25 01:48:04;;;;;;;16.1;9.600001;;;;;;;-1.96;49.0166;95889.76;;;;
2020/03/25 01:49:21;;;;;;;16.1;9.600001;;;;;;;-1.96;49.0166;95889.76;;;;
2020/03/25 01:50:32;;;;;;;16.1;9.600001;;;;;;;-1.96;49.0166;95889.76;;;;
2020/03/25 01:51:54;;;;;;;14.45;8.25;;;;;;;-2.07;48.99219;95874.49;;;;
2020/03/25 01:53:12;;;;;;;14.45;8.25;;;;;;;-2.07;48.99219;95874.49;;;;
2020/03/25 01:54:27;;;;;;;16.9;10.1;;;;;;;-2.05;49.12012;95870.79;;;;
2020/03/25 01:55:35;;;;;;;16.9;10.1;;;;;;;-2.05;49.12012;95870.79;;;;
2020/03/25 01:56:37;;;;;;;16.9;10.1;;;;;;;-2.05;49.12012;95870.79;;;;
2020/03/25 01:58:11;;;;;;;16.9;10.1;;;;;;;-2.05;49.12012;95870.79;;;;
2020/03/25 01:59:22;;;;;;;16.9;10.1;;;;;;;-2.05;49.12012;95870.79;;;;
2020/03/25 02:00:30;;;;;;;16.9;10.1;;;;;;;-2.05;49.12012;95870.79;;;;
2020/03/25 02:01:54;;;;;;;16.9;10.1;;;;;;;-2.05;49.12012;95870.79;;;;
2020/03/25 02:04:20;;;;;;;16.9;10.1;;;;;;;-2.05;49.12012;95870.79;;;;
2020/03/25 02:05:46;;;;;;;16.9;8.549999;;;;;;;-2.21;48.87207;95873.63;;;;
2020/03/25 02:06:54;;;;;;;16.9;8.549999;;;;;;;-2.21;48.87207;95873.63;;;;
2020/03/25 02:08:22;;;;;;;16.9;8.549999;;;;;;;-2.21;48.87207;95873.63;;;;
2020/03/25 02:09:33;;;;;;;16.9;8.549999;;;;;;;-2.21;48.87207;95873.63;;;;
2020/03/25 02:11:13;;;;;;;16.9;8.549999;;;;;;;-2.21;48.87207;95873.63;;;;
2020/03/25 02:12:36;;;;;;;16.9;8.549999;;;;;;;-2.21;48.87207;95873.63;;;;
2020/03/25 02:14:53;;;;;;;16.9;8.549999;;;;;;;-2.21;48.87207;95873.63;;;;
2020/03/25 02:16:26;;;;;;;12.5;6.5;;;;;;;-2.31;48.7041;95863.98;;;;
2020/03/25 02:18:33;;;;;;;12.5;6.5;;;;;;;-2.31;48.7041;95863.98;;;;
2020/03/25 02:19:44;;;;;;;12.5;6.5;;;;;;;-2.31;48.7041;95863.98;;;;
2020/03/25 02:20:57;;;;;;;12.5;6.5;;;;;;;-2.31;48.7041;95863.98;;;;
2020/03/25 02:22:11;;;;;;;12.5;6.5;;;;;;;-2.31;48.7041;95863.98;;;;
2020/03/25 02:23:20;;;;;;;12.5;6.5;;;;;;;-2.31;48.7041;95863.98;;;;
2020/03/25 02:28:37;;;;;;;14.15;8.85;;;;;;;-2.46;48.81152;95862.75;;;;
2020/03/25 02:29:49;;;;;;;14.15;8.85;;;;;;;-2.46;48.81152;95862.75;;;;
2020/03/25 02:31:44;;;;;;;14.15;8.85;;;;;;;-2.46;48.81152;95862.75;;;;
2020/03/25 02:33:02;;;;;;;14.15;8.85;;;;;;;-2.46;48.81152;95862.75;;;;
2020/03/25 02:34:21;;;;;;;14.15;8.85;;;;;;;-2.46;48.81152;95862.75;;;;
2020/03/25 02:35:29;;;;;;;14.15;8.85;;;;;;;-2.46;48.81152;95862.75;;;;
2020/03/25 02:36:40;;;;;;;14.15;8.85;;;;;;;-2.46;48.81152;95862.75;;;;
2020/03/25 02:37:53;;;;;;;14.15;8.85;;;;;;;-2.46;48.81152;95862.75;;;;
2020/03/25 02:39:06;;;;;;;12.4;8.049999;;;;;;;-2.53;48.58496;95852.83;;;;
2020/03/25 02:41:21;;;;;;;12.4;8.049999;;;;;;;-2.53;48.58496;95852.83;;;;
2020/03/25 02:46:38;;;;;;;12.4;8.049999;;;;;;;-2.53;48.58496;95852.83;;;;
2020/03/25 02:47:45;;;;;;;12.4;8.049999;;;;;;;-2.53;48.58496;95852.83;;;;
2020/03/25 02:48:53;;;;;;;12.4;8.049999;;;;;;;-2.53;48.58496;95852.83;;;;
2020/03/25 02:49:59;;;;;;;10.5;7.150001;;;;;;;-2.53;48.87695;95843.58;;;;
2020/03/25 02:51:30;;;;;;;10.5;7.150001;;;;;;;-2.53;48.87695;95843.58;;;;
2020/03/25 02:52:50;;;;;;;10.5;7.150001;;;;;;;-2.53;48.87695;95843.58;;;;
2020/03/25 02:54:10;;;;;;;10.5;7.150001;;;;;;;-2.53;48.87695;95843.58;;;;
2020/03/25 02:55:16;;;;;;;10.5;7.150001;;;;;;;-2.53;48.87695;95843.58;;;;
2020/03/25 02:56:22;;;;;;;10.5;7.150001;;;;;;;-2.53;48.87695;95843.58;;;;
2020/03/25 02:57:31;;;;;;;10.5;7.150001;;;;;;;-2.53;48.87695;95843.58;;;;
2020/03/25 02:58:37;;;;;;;10.5;7.150001;;;;;;;-2.53;48.87695;95843.58;;;;
2020/03/25 02:59:43;;;;;;;10.5;7.150001;;;;;;;-2.53;48.87695;95843.58;;;;
2020/03/25 03:00:44;;;;;;;11.8;6.500001;;;;;;;-2.58;48.95605;95826.42;;;;
2020/03/25 03:01:56;;;;;;;11.8;6.500001;;;;;;;-2.58;48.95605;95826.42;;;;
2020/03/25 03:03:05;;;;;;;13.05;8;;;;;;;-2.52;49.26563;95826.76;;;;
2020/03/25 03:04:17;;;;;;;13.05;8;;;;;;;-2.52;49.26563;95826.76;;;;
2020/03/25 03:05:50;;;;;;;13.05;8;;;;;;;-2.52;49.26563;95826.76;;;;
2020/03/25 03:07:19;;;;;;;13.05;8;;;;;;;-2.52;49.26563;95826.76;;;;
2020/03/25 03:09:43;;;;;;;13.05;8;;;;;;;-2.52;49.26563;95826.76;;;;
2020/03/25 03:11:43;;;;;;;13.05;8;;;;;;;-2.52;49.26563;95826.76;;;;
2020/03/25 03:13:40;;;;;;;14.9;7.200001;;;;;;;-2.53;49.04492;95826.4;;;;
2020/03/25 03:15:48;;;;;;;14.9;7.200001;;;;;;;-2.53;49.04492;95826.4;;;;
2020/03/25 03:17:13;;;;;;;14.9;7.200001;;;;;;;-2.53;49.04492;95826.4;;;;
2020/03/25 03:18:56;;;;;;;14.9;7.200001;;;;;;;-2.53;49.04492;95826.4;;;;
2020/03/25 03:20:06;;;;;;;14.9;7.200001;;;;;;;-2.53;49.04492;95826.4;;;;
2020/03/25 03:21:26;;;;;;;14.9;7.200001;;;;;;;-2.53;49.04492;95826.4;;;;
2020/03/25 03:22:47;;;;;;;14.9;7.200001;;;;;;;-2.53;49.04492;95826.4;;;;
2020/03/25 03:23:49;;;;;;;14.9;7.200001;;;;;;;-2.53;49.04492;95826.4;;;;
2020/03/25 03:24:56;;;;;;;14.65;7.4;;;;;;;-2.54;49.24121;95824.33;;;;
2020/03/25 03:25:58;;;;;;;14.65;7.4;;;;;;;-2.54;49.24121;95824.33;;;;
2020/03/25 03:27:03;;;;;;;14.65;7.4;;;;;;;-2.54;49.24121;95824.33;;;;
2020/03/25 03:28:15;;;;;;;14.65;7.4;;;;;;;-2.54;49.24121;95824.33;;;;
2020/03/25 03:29:31;;;;;;;14.65;7.4;;;;;;;-2.54;49.24121;95824.33;;;;
2020/03/25 03:30:40;;;;;;;14.65;7.4;;;;;;;-2.54;49.24121;95824.33;;;;
2020/03/25 03:31:51;;;;;;;14.65;7.4;;;;;;;-2.54;49.24121;95824.33;;;;
2020/03/25 03:32:59;;;;;;;14.65;7.4;;;;;;;-2.54;49.24121;95824.33;;;;
2020/03/25 03:34:09;;;;;;;14.65;7.4;;;;;;;-2.54;49.24121;95824.33;;;;
2020/03/25 03:35:18;;;;;;;13.55;7;;;;;;;-2.62;49.10645;95824.19;;;;
2020/03/25 03:37:00;;;;;;;13.55;7;;;;;;;-2.62;49.10645;95824.19;;;;
2020/03/25 03:38:11;;;;;;;12.5;7.95;;;;;;;-2.59;49.2666;95829.6;;;;
2020/03/25 03:39:23;;;;;;;12.5;7.95;;;;;;;-2.59;49.2666;95829.6;;;;
2020/03/25 03:41:01;;;;;;;12.5;7.95;;;;;;;-2.59;49.2666;95829.6;;;;
2020/03/25 03:42:14;;;;;;;12.5;7.95;;;;;;;-2.59;49.2666;95829.6;;;;
2020/03/25 03:43:16;;;;;;;12.5;7.95;;;;;;;-2.59;49.2666;95829.6;;;;
2020/03/25 03:44:28;;;;;;;12.5;7.95;;;;;;;-2.59;49.2666;95829.6;;;;
2020/03/25 03:45:36;;;;;;;12.5;7.95;;;;;;;-2.59;49.2666;95829.6;;;;
2020/03/25 03:46:49;;;;;;;12.5;7.95;;;;;;;-2.59;49.2666;95829.6;;;;
2020/03/25 03:48:17;;;;;;;13.05;7.050002;;;;;;;-2.68;49.28809;95815.44;;;;
2020/03/25 03:49:28;;;;;;;13.05;7.050002;;;;;;;-2.68;49.28809;95815.44;;;;
2020/03/25 03:50:41;;;;;;;13.05;7.050002;;;;;;;-2.68;49.28809;95815.44;;;;
2020/03/25 03:51:48;;;;;;;14.25;8.050001;;;;;;;-2.65;49.49023;95814.76;;;;
2020/03/25 03:52:57;;;;;;;14.25;8.050001;;;;;;;-2.65;49.49023;95814.76;;;;
2020/03/25 03:54:01;;;;;;;14.25;8.050001;;;;;;;-2.65;49.49023;95814.76;;;;
2020/03/25 03:55:15;;;;;;;14.25;8.050001;;;;;;;-2.65;49.49023;95814.76;;;;
2020/03/25 03:56:24;;;;;;;14.25;8.050001;;;;;;;-2.65;49.49023;95814.76;;;;
2020/03/25 03:57:25;;;;;;;14.25;8.050001;;;;;;;-2.65;49.49023;95814.76;;;;
2020/03/25 03:58:29;;;;;;;14.25;8.050001;;;;;;;-2.65;49.49023;95814.76;;;;
2020/03/25 03:59:37;;;;;;;14.25;8.050001;;;;;;;-2.65;49.49023;95814.76;;;;
2020/03/25 04:00:47;;;;;;;14.25;8.050001;;;;;;;-2.65;49.49023;95814.76;;;;
2020/03/25 04:06:20;;;;;;;12;7.050002;;;;;;;-2.76;49.39355;95803.03;;;;
2020/03/25 04:07:26;;;;;;;12;7.050002;;;;;;;-2.76;49.39355;95803.03;;;;
2020/03/25 04:08:36;;;;;;;12;7.050002;;;;;;;-2.76;49.39355;95803.03;;;;
2020/03/25 04:09:43;;;;;;;12;7.050002;;;;;;;-2.76;49.39355;95803.03;;;;
2020/03/25 04:11:10;;;;;;;12;7.050002;;;;;;;-2.76;49.39355;95803.03;;;;
2020/03/25 04:12:14;;;;;;;13.2;7.299999;;;;;;;-2.84;49.4668;95810.39;;;;
2020/03/25 04:13:20;;;;;;;13.2;7.299999;;;;;;;-2.84;49.4668;95810.39;;;;
2020/03/25 04:14:25;;;;;;;13.2;7.299999;;;;;;;-2.84;49.4668;95810.39;;;;
2020/03/25 04:15:29;;;;;;;13.2;7.299999;;;;;;;-2.84;49.4668;95810.39;;;;
2020/03/25 04:16:30;;;;;;;13.2;7.299999;;;;;;;-2.84;49.4668;95810.39;;;;
2020/03/25 04:17:31;;;;;;;13.2;7.299999;;;;;;;-2.84;49.4668;95810.39;;;;
2020/03/25 04:18:38;;;;;;;13.2;7.299999;;;;;;;-2.84;49.4668;95810.39;;;;
2020/03/25 04:19:53;;;;;;;13.2;7.299999;;;;;;;-2.84;49.4668;95810.39;;;;
2020/03/25 04:20:53;;;;;;;13.2;7.299999;;;;;;;-2.84;49.4668;95810.39;;;;
2020/03/25 04:21:58;;;;;;;13.2;7.299999;;;;;;;-2.84;49.4668;95810.39;;;;
2020/03/25 04:23:01;;;;;;;12.6;7.3;;;;;;;-3.02;49.68652;95801.14;;;;
2020/03/25 04:24:08;;;;;;;12.6;7.3;;;;;;;-3.02;49.68652;95801.14;;;;
2020/03/25 04:25:14;;;;;;;12.6;7.3;;;;;;;-3.02;49.68652;95801.14;;;;
2020/03/25 04:26:19;;;;;;;12.6;7.3;;;;;;;-3.02;49.68652;95801.14;;;;
2020/03/25 04:27:20;;;;;;;12.6;7.3;;;;;;;-3.02;49.68652;95801.14;;;;
2020/03/25 04:28:23;;;;;;;12.6;7.3;;;;;;;-3.02;49.68652;95801.14;;;;
2020/03/25 04:29:28;;;;;;;12.6;7.3;;;;;;;-3.02;49.68652;95801.14;;;;
2020/03/25 04:30:32;;;;;;;12.6;7.3;;;;;;;-3.02;49.68652;95801.14;;;;
2020/03/25 04:31:38;;;;;;;12.6;7.3;;;;;;;-3.02;49.68652;95801.14;;;;
2020/03/25 04:32:43;;;;;;;12.6;7.3;;;;;;;-3.02;49.68652;95801.14;;;;
2020/03/25 04:33:44;;;;;;;11.7;7.05;;;;;;;-3.07;50.09766;95793.19;;;;
2020/03/25 04:34:45;;;;;;;11.7;7.05;;;;;;;-3.07;50.09766;95793.19;;;;
2020/03/25 04:35:48;;;;;;;11.7;7.05;;;;;;;-3.07;50.09766;95793.19;;;;
2020/03/25 04:36:54;;;;;;;11.7;7.05;;;;;;;-3.07;50.09766;95793.19;;;;
2020/03/25 04:38:01;;;;;;;11.7;7.05;;;;;;;-3.07;50.09766;95793.19;;;;
2020/03/25 04:39:03;;;;;;;11.7;7.05;;;;;;;-3.07;50.09766;95793.19;;;;
2020/03/25 04:40:18;;;;;;;11.7;7.05;;;;;;;-3.07;50.09766;95793.19;;;;
2020/03/25 04:41:21;;;;;;;11.7;7.05;;;;;;;-3.07;50.09766;95793.19;;;;
2020/03/25 04:42:23;;;;;;;11.7;7.05;;;;;;;-3.07;50.09766;95793.19;;;;
2020/03/25 04:43:26;;;;;;;11.7;7.05;;;;;;;-3.07;50.09766;95793.19;;;;
2020/03/25 04:44:27;;;;;;;15.8;7.650001;;;;;;;-3.18;49.92773;95790.7;;;;
2020/03/25 04:45:27;;;;;;;15.8;7.650001;;;;;;;-3.18;49.92773;95790.7;;;;
2020/03/25 04:46:28;;;;;;;15.8;7.650001;;;;;;;-3.18;49.92773;95790.7;;;;
2020/03/25 04:47:28;;;;;;;15.8;7.650001;;;;;;;-3.18;49.92773;95790.7;;;;
2020/03/25 04:48:29;;;;;;;15.8;7.650001;;;;;;;-3.18;49.92773;95790.7;;;;
2020/03/25 04:49:33;;;;;;;15.8;7.650001;;;;;;;-3.18;49.92773;95790.7;;;;
2020/03/25 04:50:34;;;;;;;15.8;7.650001;;;;;;;-3.18;49.92773;95790.7;;;;
2020/03/25 04:51:35;;;;;;;15.8;7.650001;;;;;;;-3.18;49.92773;95790.7;;;;
2020/03/25 04:52:35;;;;;;;15.8;7.650001;;;;;;;-3.18;49.92773;95790.7;;;;
2020/03/25 04:53:36;;;;;;;15.8;7.650001;;;;;;;-3.18;49.92773;95790.7;;;;
2020/03/25 04:54:37;;;;;;;12.95;7.4;;;;;;;-3.26;49.75195;95793.14;;;;
2020/03/25 04:55:38;;;;;;;12.95;7.4;;;;;;;-3.26;49.75195;95793.14;;;;
2020/03/25 04:56:39;;;;;;;12.95;7.4;;;;;;;-3.26;49.75195;95793.14;;;;
2020/03/25 04:57:39;;;;;;;12.95;7.4;;;;;;;-3.26;49.75195;95793.14;;;;
2020/03/25 04:58:40;;;;;;;12.95;7.4;;;;;;;-3.26;49.75195;95793.14;;;;
2020/03/25 04:59:41;;;;;;;12.95;7.4;;;;;;;-3.26;49.75195;95793.14;;;;
2020/03/25 05:00:41;;;;;;;12.95;7.4;;;;;;;-3.26;49.75195;95793.14;;;;
2020/03/25 05:01:54;;;;;;;12.95;7.4;;;;;;;-3.26;49.75195;95793.14;;;;
2020/03/25 05:02:59;;;;;;;12.95;7.4;;;;;;;-3.26;49.75195;95793.14;;;;
2020/03/25 05:04:00;;;;;;;12.95;7.4;;;;;;;-3.26;49.75195;95793.14;;;;
2020/03/25 05:05:00;;;;;;;12.95;7.4;;;;;;;-3.26;49.75195;95793.14;;;;
2020/03/25 05:06:38;;;;;;;18;7.450001;;;;;;;-3.38;49.74805;95786.82;;;;
2020/03/25 05:08:02;;;;;;;18;7.450001;;;;;;;-3.38;49.74805;95786.82;;;;
2020/03/25 05:09:05;;;;;;;18;7.450001;;;;;;;-3.38;49.74805;95786.82;;;;
2020/03/25 05:11:38;;;;;;;18;7.450001;;;;;;;-3.38;49.74805;95786.82;;;;
2020/03/25 05:12:38;;;;;;;18;7.450001;;;;;;;-3.38;49.74805;95786.82;;;;
2020/03/25 05:13:48;;;;;;;18;7.450001;;;;;;;-3.38;49.74805;95786.82;;;;
2020/03/25 05:14:52;;;;;;;18;7.450001;;;;;;;-3.38;49.74805;95786.82;;;;
2020/03/25 05:15:53;;;;;;;12.6;7.349999;;;;;;;-3.4;49.57031;95780.36;;;;
2020/03/25 05:16:57;;;;;;;12.6;7.349999;;;;;;;-3.4;49.57031;95780.36;;;;
2020/03/25 05:17:58;;;;;;;12.6;7.349999;;;;;;;-3.4;49.57031;95780.36;;;;
2020/03/25 05:19:08;;;;;;;12.6;7.349999;;;;;;;-3.4;49.57031;95780.36;;;;
2020/03/25 05:20:09;;;;;;;12.6;7.349999;;;;;;;-3.4;49.57031;95780.36;;;;
2020/03/25 05:21:10;;;;;;;12.6;7.349999;;;;;;;-3.4;49.57031;95780.36;;;;
2020/03/25 05:22:15;;;;;;;12.6;7.349999;;;;;;;-3.4;49.57031;95780.36;;;;
2020/03/25 05:23:16;;;;;;;12.6;7.349999;;;;;;;-3.4;49.57031;95780.36;;;;
2020/03/25 05:24:16;;;;;;;12.6;7.349999;;;;;;;-3.4;49.57031;95780.36;;;;
2020/03/25 05:25:17;;;;;;;12.6;7.349999;;;;;;;-3.4;49.57031;95780.36;;;;
2020/03/25 05:26:17;;;;;;;14.75;6.9;;;;;;;-3.41;49.41016;95782.73;;;;
2020/03/25 05:27:23;;;;;;;14.75;6.9;;;;;;;-3.41;49.41016;95782.73;;;;
2020/03/25 05:28:27;;;;;;;14.75;6.9;;;;;;;-3.41;49.41016;95782.73;;;;
2020/03/25 05:29:28;;;;;;;14.75;6.9;;;;;;;-3.41;49.41016;95782.73;;;;
2020/03/25 05:30:29;;;;;;;14.75;6.9;;;;;;;-3.41;49.41016;95782.73;;;;
2020/03/25 05:31:29;;;;;;;14.75;6.9;;;;;;;-3.41;49.41016;95782.73;;;;
2020/03/25 05:32:30;;;;;;;14.75;6.9;;;;;;;-3.41;49.41016;95782.73;;;;
2020/03/25 05:33:31;;;;;;;14.75;6.9;;;;;;;-3.41;49.41016;95782.73;;;;
2020/03/25 05:34:31;;;;;;;14.75;6.9;;;;;;;-3.41;49.41016;95782.73;;;;
2020/03/25 05:35:33;;;;;;;14.75;6.9;;;;;;;-3.41;49.41016;95782.73;;;;
2020/03/25 05:36:34;;;;;;;14.75;6.9;;;;;;;-3.41;49.41016;95782.73;;;;
2020/03/25 05:37:35;;;;;;;12.05;6.950001;;;;;;;-3.28;49.36426;95785.88;;;;
2020/03/25 05:38:36;;;;;;;12.05;6.950001;;;;;;;-3.28;49.36426;95785.88;;;;
2020/03/25 05:39:36;;;;;;;12.05;6.950001;;;;;;;-3.28;49.36426;95785.88;;;;
2020/03/25 05:40:37;;;;;;;12.05;6.950001;;;;;;;-3.28;49.36426;95785.88;;;;
2020/03/25 05:41:38;;;;;;;12.05;6.950001;;;;;;;-3.28;49.36426;95785.88;;;;
2020/03/25 05:42:38;;;;;;;12.05;6.950001;;;;;;;-3.28;49.36426;95785.88;;;;
2020/03/25 05:43:40;;;;;;;12.05;6.950001;;;;;;;-3.28;49.36426;95785.88;;;;
2020/03/25 05:44:42;;;;;;;12.05;6.950001;;;;;;;-3.28;49.36426;95785.88;;;;
2020/03/25 05:45:47;;;;;;;12.05;6.950001;;;;;;;-3.28;49.36426;95785.88;;;;
2020/03/25 05:46:53;;;;;;;12.05;6.950001;;;;;;;-3.28;49.36426;95785.88;;;;
2020/03/25 05:47:55;;;;;;;14;7.25;;;;;;;-3.17;49.25195;95778.7;;;;
2020/03/25 05:48:59;;;;;;;14;7.25;;;;;;;-3.17;49.25195;95778.7;;;;
2020/03/25 05:50:00;;;;;;;14;7.25;;;;;;;-3.17;49.25195;95778.7;;;;
2020/03/25 05:51:01;;;;;;;14;7.25;;;;;;;-3.17;49.25195;95778.7;;;;
2020/03/25 05:52:05;;;;;;;14;7.25;;;;;;;-3.17;49.25195;95778.7;;;;
2020/03/25 05:53:06;;;;;;;14;7.25;;;;;;;-3.17;49.25195;95778.7;;;;
2020/03/25 05:54:09;;;;;;;14;7.25;;;;;;;-3.17;49.25195;95778.7;;;;
2020/03/25 05:55:10;;;;;;;14;7.25;;;;;;;-3.17;49.25195;95778.7;;;;
2020/03/25 05:56:11;;;;;;;14;7.25;;;;;;;-3.17;49.25195;95778.7;;;;
2020/03/25 05:57:16;;;;;;;14;7.25;;;;;;;-3.17;49.25195;95778.7;;;;
2020/03/25 05:58:17;;;;;;;14.45;6.949999;;;;;;;-2.92;49.35449;95772.83;;;;
2020/03/25 05:59:18;;;;;;;14.45;6.949999;;;;;;;-2.92;49.35449;95772.83;;;;
2020/03/25 06:00:19;;;;;;;14.45;6.949999;;;;;;;-2.92;49.35449;95772.83;;;;
2020/03/25 06:01:25;;;;;;;14.45;6.949999;;;;;;;-2.92;49.35449;95772.83;;;;
2020/03/25 06:02:30;;;;;;;14.45;6.949999;;;;;;;-2.92;49.35449;95772.83;;;;
2020/03/25 06:03:32;;;;;;;14.45;6.949999;;;;;;;-2.92;49.35449;95772.83;;;;
2020/03/25 06:04:32;;;;;;;14.45;6.949999;;;;;;;-2.92;49.35449;95772.83;;;;
2020/03/25 06:05:33;;;;;;;14.45;6.949999;;;;;;;-2.92;49.35449;95772.83;;;;
2020/03/25 06:06:35;;;;;;;14.45;6.949999;;;;;;;-2.92;49.35449;95772.83;;;;
2020/03/25 06:07:37;;;;;;;14.45;6.949999;;;;;;;-2.92;49.35449;95772.83;;;;
2020/03/25 06:08:38;;;;;;;14.45;6.949999;;;;;;;-2.92;49.35449;95772.83;;;;
2020/03/25 06:09:40;;;;;;;14.7;7.1;;;;;;;-2.7;49.41113;95776.44;;;;
2020/03/25 06:10:43;;;;;;;14.7;7.1;;;;;;;-2.7;49.41113;95776.44;;;;
2020/03/25 06:11:44;;;;;;;14.7;7.1;;;;;;;-2.7;49.41113;95776.44;;;;
2020/03/25 06:12:45;;;;;;;14.7;7.1;;;;;;;-2.7;49.41113;95776.44;;;;
2020/03/25 06:13:54;;;;;;;14.7;7.1;;;;;;;-2.7;49.41113;95776.44;;;;
2020/03/25 06:14:58;;;;;;;14.7;7.1;;;;;;;-2.7;49.41113;95776.44;;;;
2020/03/25 06:16:00;;;;;;;14.7;7.1;;;;;;;-2.7;49.41113;95776.44;;;;
2020/03/25 06:17:03;;;;;;;14.7;7.1;;;;;;;-2.7;49.41113;95776.44;;;;
2020/03/25 06:18:04;;;;;;;14.7;7.1;;;;;;;-2.7;49.41113;95776.44;;;;
2020/03/25 06:19:07;;;;;;;14.7;7.1;;;;;;;-2.7;49.41113;95776.44;;;;
2020/03/25 06:20:08;;;;;;;12.4;6.95;;;;;;;-2.36;49.21094;95767.5;;;;
2020/03/25 06:21:12;;;;;;;12.4;6.95;;;;;;;-2.36;49.21094;95767.5;;;;
2020/03/25 06:22:20;;;;;;;12.4;6.95;;;;;;;-2.36;49.21094;95767.5;;;;
2020/03/25 06:23:21;;;;;;;12.4;6.95;;;;;;;-2.36;49.21094;95767.5;;;;
2020/03/25 06:24:29;;;;;;;12.4;6.95;;;;;;;-2.36;49.21094;95767.5;;;;
2020/03/25 06:25:33;;;;;;;12.4;6.95;;;;;;;-2.36;49.21094;95767.5;;;;
2020/03/25 06:26:34;;;;;;;12.4;6.95;;;;;;;-2.36;49.21094;95767.5;;;;
2020/03/25 06:27:35;;;;;;;12.4;6.95;;;;;;;-2.36;49.21094;95767.5;;;;
2020/03/25 06:28:39;;;;;;;12.4;6.95;;;;;;;-2.36;49.21094;95767.5;;;;
2020/03/25 06:29:40;;;;;;;12.4;6.95;;;;;;;-2.36;49.21094;95767.5;;;;
2020/03/25 06:30:41;;;;;;;13.9;7.2;;;;;;;-2.05;49.25684;95747.69;;;;
2020/03/25 06:31:58;;;;;;;13.9;7.2;;;;;;;-2.05;49.25684;95747.69;;;;
2020/03/25 06:32:59;;;;;;;17.65;8.15;;;;;;;-1.84;49.36426;95747.44;;;;
2020/03/25 06:34:04;;;;;;;17.65;8.15;;;;;;;-1.84;49.36426;95747.44;;;;
2020/03/25 06:35:08;;;;;;;17.65;8.15;;;;;;;-1.84;49.36426;95747.44;;;;
2020/03/25 06:36:11;;;;;;;17.65;8.15;;;;;;;-1.84;49.36426;95747.44;;;;
2020/03/25 06:37:15;;;;;;;17.65;8.15;;;;;;;-1.84;49.36426;95747.44;;;;
2020/03/25 06:38:19;;;;;;;17.65;8.15;;;;;;;-1.84;49.36426;95747.44;;;;
2020/03/25 06:39:20;;;;;;;17.65;8.15;;;;;;;-1.84;49.36426;95747.44;;;;
2020/03/25 06:40:33;;;;;;;17.65;8.15;;;;;;;-1.84;49.36426;95747.44;;;;
2020/03/25 06:41:33;;;;;;;17.65;8.15;;;;;;;-1.84;49.36426;95747.44;;;;
2020/03/25 06:42:34;;;;;;;17.65;8.15;;;;;;;-1.84;49.36426;95747.44;;;;
2020/03/25 06:43:36;;;;;;;13.6;7.5;;;;;;;-0.95;48.52441;95735.82;;;;
2020/03/25 06:44:37;;;;;;;13.6;7.5;;;;;;;-0.95;48.52441;95735.82;;;;
2020/03/25 06:45:43;;;;;;;13.6;7.5;;;;;;;-0.95;48.52441;95735.82;;;;
2020/03/25 06:46:46;;;;;;;14.4;8.749999;;;;;;;-0.67;48.59863;95727.15;;;;
2020/03/25 06:47:47;;;;;;;14.4;8.749999;;;;;;;-0.67;48.59863;95727.15;;;;
2020/03/25 06:48:48;;;;;;;15.65;9.049999;;;;;;;-0.34;48.44629;95719.79;;;;
2020/03/25 06:49:48;;;;;;;15.65;9.049999;;;;;;;-0.34;48.44629;95719.79;;;;
2020/03/25 06:50:49;;;;;;;15.65;9.049999;;;;;;;-0.34;48.44629;95719.79;;;;
2020/03/25 06:51:54;;;;;;;13.75;9.2;;;;;;;-0.03;48.2832;95728.85;;;;
2020/03/25 06:52:55;;;;;;;13.75;9.2;;;;;;;-0.03;48.2832;95728.85;;;;
2020/03/25 06:53:58;;;;;;;13.7;8.950001;;;;;;;0.24;47.99805;95726.37;;;;
2020/03/25 06:54:58;;;;;;;13.7;8.950001;;;;;;;0.24;47.99805;95726.37;;;;
2020/03/25 06:55:59;;;;;;;13.7;8.950001;;;;;;;0.24;47.99805;95726.37;;;;
2020/03/25 06:57:04;;;;;;;15.6;9.749999;;;;;;;0.5;47.76367;95724.94;;;;
2020/03/25 06:58:08;;;;;;;15.6;9.749999;;;;;;;0.5;47.76367;95724.94;;;;
2020/03/25 06:59:09;;;;;;;15.6;9.749999;;;;;;;0.5;47.76367;95724.94;;;;
2020/03/25 07:00:13;;;;;;;15.2;8.950001;;;;;;;0.75;47.50684;95721.31;;;;
2020/03/25 07:01:19;;;;;;;15.2;8.950001;;;;;;;0.75;47.50684;95721.31;;;;
2020/03/25 07:02:20;;;;;;;13;9.450001;;;;;;;0.99;47.23828;95726.61;;;;
2020/03/25 07:03:23;;;;;;;13;9.450001;;;;;;;0.99;47.23828;95726.61;;;;
2020/03/25 07:04:24;;;;;;;13;9.450001;;;;;;;0.99;47.23828;95726.61;;;;
2020/03/25 07:05:28;;;;;;;13.45;9.049999;;;;;;;1.21;46.94629;95720.62;;;;
2020/03/25 07:06:28;;;;;;;13.45;9.049999;;;;;;;1.21;46.94629;95720.62;;;;
2020/03/25 07:07:29;;;;;;;12.8;9.049999;;;;;;;1.42;46.62109;95720.09;;;;
2020/03/25 07:08:30;;;;;;;12.8;9.049999;;;;;;;1.42;46.62109;95720.09;;;;
2020/03/25 07:09:30;;;;;;;12.8;9.049999;;;;;;;1.42;46.62109;95720.09;;;;
2020/03/25 07:10:34;;;;;;;12.8;9.049999;;;;;;;1.42;46.62109;95720.09;;;;
2020/03/25 07:11:35;;;;;;;12.8;9.049999;;;;;;;1.42;46.62109;95720.09;;;;
2020/03/25 07:12:36;;;;;;;12.8;9.049999;;;;;;;1.42;46.62109;95720.09;;;;
2020/03/25 07:13:41;;;;;;;12.8;9.049999;;;;;;;1.42;46.62109;95720.09;;;;
2020/03/25 07:14:42;;;;;;;12.8;9.049999;;;;;;;1.42;46.62109;95720.09;;;;
2020/03/25 07:15:43;;;;;;;12.8;9.049999;;;;;;;1.42;46.62109;95720.09;;;;
2020/03/25 07:16:44;;;;;;;12.8;9.049999;;;;;;;1.42;46.62109;95720.09;;;;
2020/03/25 07:17:45;;;;;;;13.95;8.500002;;;;;;;1.78;46.08984;95716.82;;;;